sensor_id;sensor_type;location;lat;lon;timestamp;P1;durP1;ratioP1;P2;durP2;ratioP2
20229;SDS011;12195;55.790;37.572;2023-07-30T00:01:34;20.12;;;8.05;;
20229;SDS011;12195;55.790;37.572;2023-07-30T00:04:20;16.05;;;9.43;;
20229;SDS011;12195;55.790;37.572;2023-07-30T00:06:54;15.13;;;8.80;;
20229;SDS011;12195;55.790;37.572;2023-07-30T00:09:36;13.30;;;7.55;;
20229;SDS011;12195;55.790;37.572;2023-07-30T00:12:19;13.32;;;7.97;;
20229;SDS011;12195;55.790;37.572;2023-07-30T00:14:52;15.88;;;7.20;;
20229;SDS011;12195;55.790;37.572;2023-07-30T00:17:35;9.70;;;7.75;;
20229;SDS011;12195;55.790;37.572;2023-07-30T00:20:18;12.80;;;7.45;;
20229;SDS011;12195;55.790;37.572;2023-07-30T00:23:01;13.08;;;7.50;;
20229;SDS011;12195;55.790;37.572;2023-07-30T00:25:34;15.90;;;6.90;;
20229;SDS011;12195;55.790;37.572;2023-07-30T00:28:20;12.25;;;6.75;;
20229;SDS011;12195;55.790;37.572;2023-07-30T00:31:02;12.53;;;6.87;;
20229;SDS011;12195;55.790;37.572;2023-07-30T00:33:35;10.18;;;6.40;;
20229;SDS011;12195;55.790;37.572;2023-07-30T00:36:20;13.95;;;7.05;;
20229;SDS011;12195;55.790;37.572;2023-07-30T00:39:02;11.12;;;7.03;;
20229;SDS011;12195;55.790;37.572;2023-07-30T00:41:35;15.50;;;6.67;;
20229;SDS011;12195;55.790;37.572;2023-07-30T00:44:20;10.90;;;6.50;;
20229;SDS011;12195;55.790;37.572;2023-07-30T00:47:05;11.65;;;6.72;;
20229;SDS011;12195;55.790;37.572;2023-07-30T00:49:37;11.33;;;6.35;;
20229;SDS011;12195;55.790;37.572;2023-07-30T00:52:22;7.37;;;5.50;;
20229;SDS011;12195;55.790;37.572;2023-07-30T00:54:57;9.15;;;5.53;;
20229;SDS011;12195;55.790;37.572;2023-07-30T00:58:04;8.08;;;4.90;;
20229;SDS011;12195;55.790;37.572;2023-07-30T01:00:37;10.58;;;5.67;;
20229;SDS011;12195;55.790;37.572;2023-07-30T01:03:22;17.57;;;6.12;;
20229;SDS011;12195;55.790;37.572;2023-07-30T01:06:06;7.72;;;5.08;;
20229;SDS011;12195;55.790;37.572;2023-07-30T01:08:50;6.75;;;5.00;;
20229;SDS011;12195;55.790;37.572;2023-07-30T01:11:24;8.48;;;5.25;;
20229;SDS011;12195;55.790;37.572;2023-07-30T01:14:09;13.53;;;5.40;;
20229;SDS011;12195;55.790;37.572;2023-07-30T01:16:52;10.23;;;5.62;;
20229;SDS011;12195;55.790;37.572;2023-07-30T01:19:36;10.85;;;5.53;;
20229;SDS011;12195;55.790;37.572;2023-07-30T01:22:09;10.43;;;5.72;;
20229;SDS011;12195;55.790;37.572;2023-07-30T01:24:51;7.70;;;5.80;;
20229;SDS011;12195;55.790;37.572;2023-07-30T01:27:25;9.10;;;5.45;;
20229;SDS011;12195;55.790;37.572;2023-07-30T01:30:17;9.58;;;5.47;;
20229;SDS011;12195;55.790;37.572;2023-07-30T01:33:03;10.90;;;6.12;;
20229;SDS011;12195;55.790;37.572;2023-07-30T01:35:37;10.20;;;6.10;;
20229;SDS011;12195;55.790;37.572;2023-07-30T01:38:21;12.93;;;5.53;;
20229;SDS011;12195;55.790;37.572;2023-07-30T01:40:54;11.63;;;6.12;;
20229;SDS011;12195;55.790;37.572;2023-07-30T01:43:27;10.35;;;6.05;;
20229;SDS011;12195;55.790;37.572;2023-07-30T01:46:09;7.83;;;6.00;;
20229;SDS011;12195;55.790;37.572;2023-07-30T01:48:42;11.83;;;6.10;;
20229;SDS011;12195;55.790;37.572;2023-07-30T01:51:26;11.50;;;5.95;;
20229;SDS011;12195;55.790;37.572;2023-07-30T01:54:09;8.55;;;5.97;;
20229;SDS011;12195;55.790;37.572;2023-07-30T01:56:41;12.80;;;6.40;;
20229;SDS011;12195;55.790;37.572;2023-07-30T01:59:24;9.93;;;5.87;;
20229;SDS011;12195;55.790;37.572;2023-07-30T02:01:57;9.65;;;6.08;;
20229;SDS011;12195;55.790;37.572;2023-07-30T02:04:42;10.20;;;5.87;;
20229;SDS011;12195;55.790;37.572;2023-07-30T02:07:14;10.93;;;6.15;;
20229;SDS011;12195;55.790;37.572;2023-07-30T02:09:59;10.23;;;6.53;;
20229;SDS011;12195;55.790;37.572;2023-07-30T02:12:44;8.05;;;5.33;;
20229;SDS011;12195;55.790;37.572;2023-07-30T02:15:17;11.20;;;5.30;;
20229;SDS011;12195;55.790;37.572;2023-07-30T02:18:01;7.62;;;5.00;;
20229;SDS011;12195;55.790;37.572;2023-07-30T02:20:44;6.35;;;4.75;;
20229;SDS011;12195;55.790;37.572;2023-07-30T02:23:17;10.58;;;5.00;;
20229;SDS011;12195;55.790;37.572;2023-07-30T02:26:01;8.70;;;4.90;;
20229;SDS011;12195;55.790;37.572;2023-07-30T02:28:45;9.05;;;4.65;;
20229;SDS011;12195;55.790;37.572;2023-07-30T02:31:18;5.97;;;4.30;;
20229;SDS011;12195;55.790;37.572;2023-07-30T02:34:01;8.73;;;4.90;;
20229;SDS011;12195;55.790;37.572;2023-07-30T02:36:44;6.50;;;4.28;;
20229;SDS011;12195;55.790;37.572;2023-07-30T02:39:17;5.80;;;3.95;;
20229;SDS011;12195;55.790;37.572;2023-07-30T02:42:01;4.72;;;3.77;;
20229;SDS011;12195;55.790;37.572;2023-07-30T02:44:45;4.58;;;3.92;;
20229;SDS011;12195;55.790;37.572;2023-07-30T02:47:18;6.50;;;4.00;;
20229;SDS011;12195;55.790;37.572;2023-07-30T02:50:01;7.42;;;3.92;;
20229;SDS011;12195;55.790;37.572;2023-07-30T02:52:35;7.85;;;4.20;;
20229;SDS011;12195;55.790;37.572;2023-07-30T02:55:19;7.60;;;3.77;;
20229;SDS011;12195;55.790;37.572;2023-07-30T02:57:52;6.75;;;3.92;;
20229;SDS011;12195;55.790;37.572;2023-07-30T03:00:34;6.58;;;3.72;;
20229;SDS011;12195;55.790;37.572;2023-07-30T03:03:07;5.17;;;3.87;;
20229;SDS011;12195;55.790;37.572;2023-07-30T03:05:53;5.50;;;4.03;;
20229;SDS011;12195;55.790;37.572;2023-07-30T03:08:39;10.03;;;4.90;;
20229;SDS011;12195;55.790;37.572;2023-07-30T03:11:11;6.60;;;4.40;;
20229;SDS011;12195;55.790;37.572;2023-07-30T03:13:56;8.35;;;3.92;;
20229;SDS011;12195;55.790;37.572;2023-07-30T03:16:39;7.95;;;4.17;;
20229;SDS011;12195;55.790;37.572;2023-07-30T03:19:11;4.87;;;3.92;;
20229;SDS011;12195;55.790;37.572;2023-07-30T03:21:54;6.97;;;4.08;;
20229;SDS011;12195;55.790;37.572;2023-07-30T03:24:41;8.15;;;4.65;;
20229;SDS011;12195;55.790;37.572;2023-07-30T03:27:23;5.83;;;3.98;;
20229;SDS011;12195;55.790;37.572;2023-07-30T03:29:56;6.05;;;3.60;;
20229;SDS011;12195;55.790;37.572;2023-07-30T03:35:03;12.18;;;4.03;;
20229;SDS011;12195;55.790;37.572;2023-07-30T03:37:48;7.80;;;4.50;;
20229;SDS011;12195;55.790;37.572;2023-07-30T03:40:21;7.33;;;3.98;;
20229;SDS011;12195;55.790;37.572;2023-07-30T03:43:06;5.05;;;3.58;;
20229;SDS011;12195;55.790;37.572;2023-07-30T03:45:39;5.72;;;3.55;;
20229;SDS011;12195;55.790;37.572;2023-07-30T03:48:21;6.20;;;3.58;;
20229;SDS011;12195;55.790;37.572;2023-07-30T03:51:05;9.18;;;3.65;;
20229;SDS011;12195;55.790;37.572;2023-07-30T03:53:51;6.20;;;3.75;;
20229;SDS011;12195;55.790;37.572;2023-07-30T03:56:24;3.72;;;3.17;;
20229;SDS011;12195;55.790;37.572;2023-07-30T03:59:10;6.47;;;3.90;;
20229;SDS011;12195;55.790;37.572;2023-07-30T04:01:53;7.35;;;3.65;;
20229;SDS011;12195;55.790;37.572;2023-07-30T04:04:26;5.37;;;3.40;;
20229;SDS011;12195;55.790;37.572;2023-07-30T04:07:08;5.95;;;3.08;;
20229;SDS011;12195;55.790;37.572;2023-07-30T04:09:41;9.20;;;3.60;;
20229;SDS011;12195;55.790;37.572;2023-07-30T04:12:27;4.35;;;3.08;;
20229;SDS011;12195;55.790;37.572;2023-07-30T04:15:10;9.30;;;3.20;;
20229;SDS011;12195;55.790;37.572;2023-07-30T04:17:43;8.58;;;3.17;;
20229;SDS011;12195;55.790;37.572;2023-07-30T04:20:27;4.90;;;2.65;;
20229;SDS011;12195;55.790;37.572;2023-07-30T04:23:00;8.40;;;3.42;;
20229;SDS011;12195;55.790;37.572;2023-07-30T04:25:45;6.53;;;3.08;;
20229;SDS011;12195;55.790;37.572;2023-07-30T04:28:30;5.45;;;2.92;;
20229;SDS011;12195;55.790;37.572;2023-07-30T04:31:02;3.08;;;2.50;;
20229;SDS011;12195;55.790;37.572;2023-07-30T04:33:45;6.60;;;3.00;;
20229;SDS011;12195;55.790;37.572;2023-07-30T04:36:27;10.05;;;3.02;;
20229;SDS011;12195;55.790;37.572;2023-07-30T04:39:00;4.05;;;2.30;;
20229;SDS011;12195;55.790;37.572;2023-07-30T04:41:48;4.05;;;2.37;;
20229;SDS011;12195;55.790;37.572;2023-07-30T04:44:32;4.30;;;2.22;;
20229;SDS011;12195;55.790;37.572;2023-07-30T04:47:07;4.55;;;2.77;;
20229;SDS011;12195;55.790;37.572;2023-07-30T04:49:53;2.98;;;2.12;;
20229;SDS011;12195;55.790;37.572;2023-07-30T04:52:27;2.87;;;2.00;;
20229;SDS011;12195;55.790;37.572;2023-07-30T04:55:09;7.72;;;2.35;;
20229;SDS011;12195;55.790;37.572;2023-07-30T04:57:42;2.10;;;1.77;;
20229;SDS011;12195;55.790;37.572;2023-07-30T05:00:15;3.62;;;2.05;;
20229;SDS011;12195;55.790;37.572;2023-07-30T05:03:01;3.90;;;1.80;;
20229;SDS011;12195;55.790;37.572;2023-07-30T05:05:44;2.60;;;2.00;;
20229;SDS011;12195;55.790;37.572;2023-07-30T05:08:16;2.72;;;1.90;;
20229;SDS011;12195;55.790;37.572;2023-07-30T05:10:49;3.17;;;2.00;;
20229;SDS011;12195;55.790;37.572;2023-07-30T05:13:21;3.17;;;1.77;;
20229;SDS011;12195;55.790;37.572;2023-07-30T05:16:05;6.83;;;2.27;;
20229;SDS011;12195;55.790;37.572;2023-07-30T05:18:39;4.50;;;1.90;;
20229;SDS011;12195;55.790;37.572;2023-07-30T05:21:23;6.17;;;2.35;;
20229;SDS011;12195;55.790;37.572;2023-07-30T05:23:56;2.95;;;1.92;;
20229;SDS011;12195;55.790;37.572;2023-07-30T05:26:40;4.22;;;2.20;;
20229;SDS011;12195;55.790;37.572;2023-07-30T05:29:24;5.35;;;1.98;;
20229;SDS011;12195;55.790;37.572;2023-07-30T05:31:57;4.90;;;2.10;;
20229;SDS011;12195;55.790;37.572;2023-07-30T05:34:30;4.00;;;1.92;;
20229;SDS011;12195;55.790;37.572;2023-07-30T05:37:03;3.55;;;2.50;;
20229;SDS011;12195;55.790;37.572;2023-07-30T05:39:36;4.25;;;1.98;;
20229;SDS011;12195;55.790;37.572;2023-07-30T05:42:25;3.85;;;2.33;;
20229;SDS011;12195;55.790;37.572;2023-07-30T05:44:58;4.80;;;2.00;;
20229;SDS011;12195;55.790;37.572;2023-07-30T05:47:41;2.25;;;2.00;;
20229;SDS011;12195;55.790;37.572;2023-07-30T05:50:14;4.15;;;1.85;;
20229;SDS011;12195;55.790;37.572;2023-07-30T05:52:56;6.75;;;2.15;;
20229;SDS011;12195;55.790;37.572;2023-07-30T05:55:29;5.05;;;2.27;;
20229;SDS011;12195;55.790;37.572;2023-07-30T05:58:13;6.17;;;2.05;;
20229;SDS011;12195;55.790;37.572;2023-07-30T06:00:46;5.80;;;2.17;;
20229;SDS011;12195;55.790;37.572;2023-07-30T06:03:29;2.70;;;2.00;;
20229;SDS011;12195;55.790;37.572;2023-07-30T06:06:13;7.55;;;2.50;;
20229;SDS011;12195;55.790;37.572;2023-07-30T06:08:58;2.92;;;2.10;;
20229;SDS011;12195;55.790;37.572;2023-07-30T06:11:42;5.22;;;2.37;;
20229;SDS011;12195;55.790;37.572;2023-07-30T06:14:25;3.05;;;2.37;;
20229;SDS011;12195;55.790;37.572;2023-07-30T06:16:59;4.47;;;2.10;;
20229;SDS011;12195;55.790;37.572;2023-07-30T06:19:44;5.40;;;2.43;;
20229;SDS011;12195;55.790;37.572;2023-07-30T06:22:17;3.75;;;2.12;;
20229;SDS011;12195;55.790;37.572;2023-07-30T06:25:00;8.85;;;2.55;;
20229;SDS011;12195;55.790;37.572;2023-07-30T06:27:33;3.58;;;1.80;;
20229;SDS011;12195;55.790;37.572;2023-07-30T06:30:17;6.58;;;2.10;;
20229;SDS011;12195;55.790;37.572;2023-07-30T06:32:50;4.22;;;1.77;;
20229;SDS011;12195;55.790;37.572;2023-07-30T06:35:35;2.37;;;1.62;;
20229;SDS011;12195;55.790;37.572;2023-07-30T06:38:08;3.92;;;1.90;;
20229;SDS011;12195;55.790;37.572;2023-07-30T06:40:53;2.67;;;1.50;;
20229;SDS011;12195;55.790;37.572;2023-07-30T06:43:38;5.15;;;2.22;;
20229;SDS011;12195;55.790;37.572;2023-07-30T06:46:12;4.15;;;1.75;;
20229;SDS011;12195;55.790;37.572;2023-07-30T06:48:56;2.65;;;1.80;;
20229;SDS011;12195;55.790;37.572;2023-07-30T06:51:39;3.65;;;1.47;;
20229;SDS011;12195;55.790;37.572;2023-07-30T06:54:13;4.45;;;1.62;;
20229;SDS011;12195;55.790;37.572;2023-07-30T06:56:57;4.78;;;2.20;;
20229;SDS011;12195;55.790;37.572;2023-07-30T06:59:43;3.92;;;1.80;;
20229;SDS011;12195;55.790;37.572;2023-07-30T07:02:16;1.82;;;1.60;;
20229;SDS011;12195;55.790;37.572;2023-07-30T07:05:02;2.50;;;1.40;;
20229;SDS011;12195;55.790;37.572;2023-07-30T07:07:45;2.67;;;1.37;;
20229;SDS011;12195;55.790;37.572;2023-07-30T07:10:30;1.87;;;1.17;;
20229;SDS011;12195;55.790;37.572;2023-07-30T07:13:03;4.00;;;1.62;;
20229;SDS011;12195;55.790;37.572;2023-07-30T07:15:48;2.50;;;1.25;;
20229;SDS011;12195;55.790;37.572;2023-07-30T07:18:32;3.50;;;1.70;;
20229;SDS011;12195;55.790;37.572;2023-07-30T07:21:05;3.90;;;1.30;;
20229;SDS011;12195;55.790;37.572;2023-07-30T07:23:49;1.30;;;1.20;;
20229;SDS011;12195;55.790;37.572;2023-07-30T07:26:22;2.75;;;1.30;;
20229;SDS011;12195;55.790;37.572;2023-07-30T07:29:05;3.80;;;1.42;;
20229;SDS011;12195;55.790;37.572;2023-07-30T07:31:38;1.45;;;1.20;;
20229;SDS011;12195;55.790;37.572;2023-07-30T07:34:22;5.28;;;1.50;;
20229;SDS011;12195;55.790;37.572;2023-07-30T07:36:54;5.83;;;1.67;;
20229;SDS011;12195;55.790;37.572;2023-07-30T07:39:39;2.33;;;1.40;;
20229;SDS011;12195;55.790;37.572;2023-07-30T07:42:24;3.00;;;1.60;;
20229;SDS011;12195;55.790;37.572;2023-07-30T07:44:57;1.10;;;1.00;;
20229;SDS011;12195;55.790;37.572;2023-07-30T07:47:43;1.82;;;1.10;;
20229;SDS011;12195;55.790;37.572;2023-07-30T07:50:17;2.87;;;1.60;;
20229;SDS011;12195;55.790;37.572;2023-07-30T07:53:04;3.42;;;1.57;;
20229;SDS011;12195;55.790;37.572;2023-07-30T07:58:20;6.03;;;1.45;;
20229;SDS011;12195;55.790;37.572;2023-07-30T08:03:39;2.83;;;1.50;;
20229;SDS011;12195;55.790;37.572;2023-07-30T08:06:12;3.42;;;1.50;;
20229;SDS011;12195;55.790;37.572;2023-07-30T08:08:45;2.77;;;1.67;;
20229;SDS011;12195;55.790;37.572;2023-07-30T08:11:19;1.47;;;1.20;;
20229;SDS011;12195;55.790;37.572;2023-07-30T08:14:03;2.67;;;1.35;;
20229;SDS011;12195;55.790;37.572;2023-07-30T08:16:36;2.52;;;1.35;;
20229;SDS011;12195;55.790;37.572;2023-07-30T08:19:22;3.05;;;1.52;;
20229;SDS011;12195;55.790;37.572;2023-07-30T08:22:11;2.92;;;1.70;;
20229;SDS011;12195;55.790;37.572;2023-07-30T08:24:43;2.25;;;1.50;;
20229;SDS011;12195;55.790;37.572;2023-07-30T08:27:26;2.67;;;1.40;;
20229;SDS011;12195;55.790;37.572;2023-07-30T08:29:59;2.80;;;1.20;;
20229;SDS011;12195;55.790;37.572;2023-07-30T08:32:42;5.37;;;2.10;;
20229;SDS011;12195;55.790;37.572;2023-07-30T08:35:28;4.67;;;1.47;;
20229;SDS011;12195;55.790;37.572;2023-07-30T08:38:01;3.10;;;1.70;;
20229;SDS011;12195;55.790;37.572;2023-07-30T08:40:44;3.72;;;1.10;;
20229;SDS011;12195;55.790;37.572;2023-07-30T08:43:20;1.90;;;1.10;;
20229;SDS011;12195;55.790;37.572;2023-07-30T08:46:06;3.00;;;1.70;;
20229;SDS011;12195;55.790;37.572;2023-07-30T08:48:40;4.42;;;1.57;;
20229;SDS011;12195;55.790;37.572;2023-07-30T08:51:28;3.25;;;1.70;;
20229;SDS011;12195;55.790;37.572;2023-07-30T08:54:13;4.42;;;1.87;;
20229;SDS011;12195;55.790;37.572;2023-07-30T08:56:58;5.78;;;1.50;;
20229;SDS011;12195;55.790;37.572;2023-07-30T08:59:37;2.98;;;1.47;;
20229;SDS011;12195;55.790;37.572;2023-07-30T09:02:34;3.77;;;1.15;;
20229;SDS011;12195;55.790;37.572;2023-07-30T09:05:15;2.50;;;1.15;;
20229;SDS011;12195;55.790;37.572;2023-07-30T09:08:01;4.28;;;1.50;;
20229;SDS011;12195;55.790;37.572;2023-07-30T09:10:43;4.22;;;1.95;;
20229;SDS011;12195;55.790;37.572;2023-07-30T09:13:28;1.60;;;1.20;;
20229;SDS011;12195;55.790;37.572;2023-07-30T09:18:48;4.95;;;1.35;;
20229;SDS011;12195;55.790;37.572;2023-07-30T09:21:32;2.27;;;1.10;;
20229;SDS011;12195;55.790;37.572;2023-07-30T09:24:06;3.80;;;1.67;;
20229;SDS011;12195;55.790;37.572;2023-07-30T09:26:50;1.50;;;1.07;;
20229;SDS011;12195;55.790;37.572;2023-07-30T09:29:23;2.92;;;1.40;;
20229;SDS011;12195;55.790;37.572;2023-07-30T09:31:56;3.05;;;1.60;;
20229;SDS011;12195;55.790;37.572;2023-07-30T09:34:41;3.10;;;1.67;;
20229;SDS011;12195;55.790;37.572;2023-07-30T09:37:29;5.75;;;1.90;;
20229;SDS011;12195;55.790;37.572;2023-07-30T09:40:03;2.37;;;1.15;;
20229;SDS011;12195;55.790;37.572;2023-07-30T09:42:53;6.33;;;1.75;;
20229;SDS011;12195;55.790;37.572;2023-07-30T09:45:40;2.45;;;1.12;;
20229;SDS011;12195;55.790;37.572;2023-07-30T09:48:15;3.02;;;1.50;;
20229;SDS011;12195;55.790;37.572;2023-07-30T09:51:01;2.55;;;1.00;;
20229;SDS011;12195;55.790;37.572;2023-07-30T09:53:37;12.90;;;2.00;;
20229;SDS011;12195;55.790;37.572;2023-07-30T09:56:21;1.98;;;1.05;;
20229;SDS011;12195;55.790;37.572;2023-07-30T09:58:55;4.65;;;1.77;;
20229;SDS011;12195;55.790;37.572;2023-07-30T10:01:43;3.87;;;1.67;;
20229;SDS011;12195;55.790;37.572;2023-07-30T10:04:26;3.42;;;1.65;;
20229;SDS011;12195;55.790;37.572;2023-07-30T10:07:15;2.15;;;1.10;;
20229;SDS011;12195;55.790;37.572;2023-07-30T10:10:01;1.92;;;1.00;;
20229;SDS011;12195;55.790;37.572;2023-07-30T10:12:35;5.55;;;1.17;;
20229;SDS011;12195;55.790;37.572;2023-07-30T10:15:10;3.33;;;1.75;;
20229;SDS011;12195;55.790;37.572;2023-07-30T10:17:56;2.35;;;1.37;;
20229;SDS011;12195;55.790;37.572;2023-07-30T10:20:40;3.25;;;1.05;;
20229;SDS011;12195;55.790;37.572;2023-07-30T10:23:28;2.60;;;1.00;;
20229;SDS011;12195;55.790;37.572;2023-07-30T10:28:40;2.20;;;1.30;;
20229;SDS011;12195;55.790;37.572;2023-07-30T10:31:37;2.27;;;0.93;;
20229;SDS011;12195;55.790;37.572;2023-07-30T10:34:27;2.87;;;1.25;;
20229;SDS011;12195;55.790;37.572;2023-07-30T10:37:18;1.07;;;0.95;;
20229;SDS011;12195;55.790;37.572;2023-07-30T10:39:54;3.75;;;1.20;;
20229;SDS011;12195;55.790;37.572;2023-07-30T10:42:38;3.37;;;1.00;;
20229;SDS011;12195;55.790;37.572;2023-07-30T10:45:25;0.80;;;0.80;;
20229;SDS011;12195;55.790;37.572;2023-07-30T10:48:04;2.80;;;1.30;;
20229;SDS011;12195;55.790;37.572;2023-07-30T10:50:51;2.95;;;1.45;;
20229;SDS011;12195;55.790;37.572;2023-07-30T10:53:24;2.90;;;1.10;;
20229;SDS011;12195;55.790;37.572;2023-07-30T10:56:06;2.72;;;1.00;;
20229;SDS011;12195;55.790;37.572;2023-07-30T10:58:41;2.52;;;1.47;;
20229;SDS011;12195;55.790;37.572;2023-07-30T11:01:16;3.98;;;1.52;;
20229;SDS011;12195;55.790;37.572;2023-07-30T11:04:05;3.17;;;1.30;;
20229;SDS011;12195;55.790;37.572;2023-07-30T11:06:57;2.37;;;1.55;;
20229;SDS011;12195;55.790;37.572;2023-07-30T11:09:44;3.35;;;1.20;;
20229;SDS011;12195;55.790;37.572;2023-07-30T11:12:18;3.05;;;1.90;;
20229;SDS011;12195;55.790;37.572;2023-07-30T11:15:12;2.00;;;1.52;;
20229;SDS011;12195;55.790;37.572;2023-07-30T11:18:00;3.80;;;1.30;;
20229;SDS011;12195;55.790;37.572;2023-07-30T11:20:33;3.55;;;1.42;;
20229;SDS011;12195;55.790;37.572;2023-07-30T11:23:21;1.70;;;1.30;;
20229;SDS011;12195;55.790;37.572;2023-07-30T11:26:07;2.77;;;1.30;;
20229;SDS011;12195;55.790;37.572;2023-07-30T11:28:42;2.75;;;1.05;;
20229;SDS011;12195;55.790;37.572;2023-07-30T11:31:19;1.10;;;1.00;;
20229;SDS011;12195;55.790;37.572;2023-07-30T11:34:06;2.17;;;0.90;;
20229;SDS011;12195;55.790;37.572;2023-07-30T11:36:39;3.62;;;1.42;;
20229;SDS011;12195;55.790;37.572;2023-07-30T11:39:25;2.33;;;1.40;;
20229;SDS011;12195;55.790;37.572;2023-07-30T11:42:11;3.17;;;1.50;;
20229;SDS011;12195;55.790;37.572;2023-07-30T11:44:55;2.08;;;1.42;;
20229;SDS011;12195;55.790;37.572;2023-07-30T11:47:41;13.00;;;2.42;;
20229;SDS011;12195;55.790;37.572;2023-07-30T11:50:14;1.22;;;1.05;;
20229;SDS011;12195;55.790;37.572;2023-07-30T11:52:59;4.78;;;1.70;;
20229;SDS011;12195;55.790;37.572;2023-07-30T11:55:43;10.35;;;1.50;;
20229;SDS011;12195;55.790;37.572;2023-07-30T11:58:16;3.10;;;1.30;;
20229;SDS011;12195;55.790;37.572;2023-07-30T12:01:01;5.47;;;1.45;;
20229;SDS011;12195;55.790;37.572;2023-07-30T12:03:34;4.40;;;1.70;;
20229;SDS011;12195;55.790;37.572;2023-07-30T12:06:08;2.08;;;1.05;;
20229;SDS011;12195;55.790;37.572;2023-07-30T12:08:56;4.72;;;2.20;;
20229;SDS011;12195;55.790;37.572;2023-07-30T12:14:44;4.00;;;1.35;;
20229;SDS011;12195;55.790;37.572;2023-07-30T12:17:33;18.55;;;3.20;;
20229;SDS011;12195;55.790;37.572;2023-07-30T12:20:06;10.48;;;1.98;;
20229;SDS011;12195;55.790;37.572;2023-07-30T12:22:50;3.15;;;1.50;;
20229;SDS011;12195;55.790;37.572;2023-07-30T12:25:23;5.95;;;1.40;;
20229;SDS011;12195;55.790;37.572;2023-07-30T12:28:08;10.88;;;2.55;;
20229;SDS011;12195;55.790;37.572;2023-07-30T12:30:42;4.35;;;1.65;;
20229;SDS011;12195;55.790;37.572;2023-07-30T12:33:27;4.15;;;1.57;;
20229;SDS011;12195;55.790;37.572;2023-07-30T12:36:00;6.55;;;1.65;;
20229;SDS011;12195;55.790;37.572;2023-07-30T12:38:45;2.72;;;1.42;;
20229;SDS011;12195;55.790;37.572;2023-07-30T12:41:27;3.70;;;1.47;;
20229;SDS011;12195;55.790;37.572;2023-07-30T12:44:00;3.22;;;1.20;;
20229;SDS011;12195;55.790;37.572;2023-07-30T12:46:47;2.52;;;1.30;;
20229;SDS011;12195;55.790;37.572;2023-07-30T12:49:20;1.77;;;1.00;;
20229;SDS011;12195;55.790;37.572;2023-07-30T12:52:05;4.15;;;1.10;;
20229;SDS011;12195;55.790;37.572;2023-07-30T12:54:50;1.60;;;1.10;;
20229;SDS011;12195;55.790;37.572;2023-07-30T12:57:36;3.02;;;1.22;;
20229;SDS011;12195;55.790;37.572;2023-07-30T13:00:09;2.67;;;1.00;;
20229;SDS011;12195;55.790;37.572;2023-07-30T13:02:56;0.90;;;0.90;;
20229;SDS011;12195;55.790;37.572;2023-07-30T13:05:39;2.05;;;1.00;;
20229;SDS011;12195;55.790;37.572;2023-07-30T13:10:56;1.20;;;1.10;;
20229;SDS011;12195;55.790;37.572;2023-07-30T13:13:28;1.07;;;1.00;;
20229;SDS011;12195;55.790;37.572;2023-07-30T13:16:13;1.07;;;0.88;;
20229;SDS011;12195;55.790;37.572;2023-07-30T13:18:56;1.42;;;1.12;;
20229;SDS011;12195;55.790;37.572;2023-07-30T13:21:39;2.05;;;1.00;;
20229;SDS011;12195;55.790;37.572;2023-07-30T13:24:24;2.22;;;1.20;;
20229;SDS011;12195;55.790;37.572;2023-07-30T13:26:59;1.52;;;1.10;;
20229;SDS011;12195;55.790;37.572;2023-07-30T13:29:44;1.30;;;1.20;;
20229;SDS011;12195;55.790;37.572;2023-07-30T13:32:19;1.90;;;0.90;;
20229;SDS011;12195;55.790;37.572;2023-07-30T13:35:05;2.80;;;1.30;;
20229;SDS011;12195;55.790;37.572;2023-07-30T13:37:38;2.75;;;1.35;;
20229;SDS011;12195;55.790;37.572;2023-07-30T13:40:21;4.05;;;1.25;;
20229;SDS011;12195;55.790;37.572;2023-07-30T13:43:10;1.20;;;1.10;;
20229;SDS011;12195;55.790;37.572;2023-07-30T13:45:43;1.75;;;0.98;;
20229;SDS011;12195;55.790;37.572;2023-07-30T13:48:27;1.35;;;0.90;;
20229;SDS011;12195;55.790;37.572;2023-07-30T13:51:12;4.85;;;1.30;;
20229;SDS011;12195;55.790;37.572;2023-07-30T13:53:44;2.40;;;1.20;;
20229;SDS011;12195;55.790;37.572;2023-07-30T13:56:29;5.20;;;1.57;;
20229;SDS011;12195;55.790;37.572;2023-07-30T13:59:04;3.25;;;1.40;;
20229;SDS011;12195;55.790;37.572;2023-07-30T14:01:47;5.62;;;1.45;;
20229;SDS011;12195;55.790;37.572;2023-07-30T14:04:21;2.67;;;1.27;;
20229;SDS011;12195;55.790;37.572;2023-07-30T14:07:05;3.80;;;1.40;;
20229;SDS011;12195;55.790;37.572;2023-07-30T14:09:38;1.30;;;0.93;;
20229;SDS011;12195;55.790;37.572;2023-07-30T14:12:25;3.98;;;1.10;;
20229;SDS011;12195;55.790;37.572;2023-07-30T14:14:58;2.20;;;1.50;;
20229;SDS011;12195;55.790;37.572;2023-07-30T14:17:43;1.10;;;1.00;;
20229;SDS011;12195;55.790;37.572;2023-07-30T14:20:17;1.10;;;1.00;;
20229;SDS011;12195;55.790;37.572;2023-07-30T14:23:01;1.95;;;0.90;;
20229;SDS011;12195;55.790;37.572;2023-07-30T14:25:47;2.25;;;0.90;;
20229;SDS011;12195;55.790;37.572;2023-07-30T14:28:19;1.40;;;1.10;;
20229;SDS011;12195;55.790;37.572;2023-07-30T14:31:02;2.30;;;1.17;;
20229;SDS011;12195;55.790;37.572;2023-07-30T14:33:35;1.22;;;0.62;;
20229;SDS011;12195;55.790;37.572;2023-07-30T14:36:18;1.50;;;0.93;;
20229;SDS011;12195;55.790;37.572;2023-07-30T14:39:03;4.15;;;1.35;;
20229;SDS011;12195;55.790;37.572;2023-07-30T14:41:37;0.98;;;0.82;;
20229;SDS011;12195;55.790;37.572;2023-07-30T14:44:23;1.02;;;0.80;;
20229;SDS011;12195;55.790;37.572;2023-07-30T14:46:56;2.35;;;1.40;;
20229;SDS011;12195;55.790;37.572;2023-07-30T14:49:48;2.77;;;1.00;;
20229;SDS011;12195;55.790;37.572;2023-07-30T14:52:22;1.10;;;1.00;;
20229;SDS011;12195;55.790;37.572;2023-07-30T14:55:06;1.60;;;0.80;;
20229;SDS011;12195;55.790;37.572;2023-07-30T14:57:51;1.20;;;0.82;;
20229;SDS011;12195;55.790;37.572;2023-07-30T15:00:24;1.30;;;0.83;;
20229;SDS011;12195;55.790;37.572;2023-07-30T15:03:10;1.35;;;0.85;;
20229;SDS011;12195;55.790;37.572;2023-07-30T15:05:43;2.83;;;1.03;;
20229;SDS011;12195;55.790;37.572;2023-07-30T15:08:26;4.62;;;1.40;;
20229;SDS011;12195;55.790;37.572;2023-07-30T15:11:02;2.33;;;0.70;;
20229;SDS011;12195;55.790;37.572;2023-07-30T15:13:46;2.75;;;1.10;;
20229;SDS011;12195;55.790;37.572;2023-07-30T15:16:19;1.15;;;1.05;;
20229;SDS011;12195;55.790;37.572;2023-07-30T15:19:05;1.62;;;1.10;;
20229;SDS011;12195;55.790;37.572;2023-07-30T15:21:38;1.62;;;1.30;;
20229;SDS011;12195;55.790;37.572;2023-07-30T15:24:23;0.88;;;0.78;;
20229;SDS011;12195;55.790;37.572;2023-07-30T15:27:05;2.00;;;1.20;;
20229;SDS011;12195;55.790;37.572;2023-07-30T15:29:50;1.52;;;0.90;;
20229;SDS011;12195;55.790;37.572;2023-07-30T15:32:32;25.80;;;3.75;;
20229;SDS011;12195;55.790;37.572;2023-07-30T15:35:21;1.50;;;0.98;;
20229;SDS011;12195;55.790;37.572;2023-07-30T15:37:55;1.30;;;1.20;;
20229;SDS011;12195;55.790;37.572;2023-07-30T15:40:39;1.82;;;1.00;;
20229;SDS011;12195;55.790;37.572;2023-07-30T15:43:14;4.78;;;0.82;;
20229;SDS011;12195;55.790;37.572;2023-07-30T15:45:58;4.30;;;1.17;;
20229;SDS011;12195;55.790;37.572;2023-07-30T15:48:45;4.78;;;1.37;;
20229;SDS011;12195;55.790;37.572;2023-07-30T15:51:18;2.08;;;1.10;;
20229;SDS011;12195;55.790;37.572;2023-07-30T15:54:02;2.12;;;1.17;;
20229;SDS011;12195;55.790;37.572;2023-07-30T15:56:48;4.12;;;1.35;;
20229;SDS011;12195;55.790;37.572;2023-07-30T15:59:21;1.52;;;1.22;;
20229;SDS011;12195;55.790;37.572;2023-07-30T16:02:05;3.65;;;1.52;;
20229;SDS011;12195;55.790;37.572;2023-07-30T16:04:39;1.57;;;1.20;;
20229;SDS011;12195;55.790;37.572;2023-07-30T16:07:21;3.95;;;1.65;;
20229;SDS011;12195;55.790;37.572;2023-07-30T16:09:54;3.37;;;1.10;;